createdAt,value
2017-06-25T00:01:59.410Z,17.00
2017-06-25T00:04:26.939Z,16.90
2017-06-25T00:06:55.226Z,16.90
2017-06-25T00:09:22.773Z,16.90
2017-06-25T00:11:50.309Z,16.80
2017-06-25T00:14:17.857Z,16.70
2017-06-25T00:16:45.385Z,16.70
2017-06-25T00:19:12.931Z,16.80
2017-06-25T00:21:40.453Z,16.90
2017-06-25T00:24:08.785Z,16.90
2017-06-25T00:26:36.311Z,16.90
2017-06-25T00:29:03.846Z,16.90
2017-06-25T00:31:32.157Z,17.00
2017-06-25T00:33:59.682Z,17.00
2017-06-25T00:36:27.243Z,16.90
2017-06-25T00:38:55.535Z,16.80
2017-06-25T00:41:23.848Z,16.80
2017-06-25T00:43:51.377Z,16.70
2017-06-25T00:46:18.933Z,16.70
2017-06-25T00:48:46.468Z,16.60
2017-06-25T00:51:14.769Z,16.40
2017-06-25T00:54:00.174Z,16.40
2017-06-25T00:56:30.919Z,16.30
2017-06-25T00:58:58.483Z,16.20
2017-06-25T01:01:26.006Z,16.00
2017-06-25T01:03:53.551Z,15.90
2017-06-25T01:06:21.086Z,15.90
2017-06-25T01:08:48.633Z,15.80
2017-06-25T01:11:16.164Z,15.80
2017-06-25T01:13:43.730Z,15.80
2017-06-25T01:16:11.263Z,16.00
2017-06-25T01:18:38.794Z,16.20
2017-06-25T01:21:07.105Z,16.50
2017-06-25T01:23:34.634Z,16.50
2017-06-25T01:26:02.199Z,16.50
2017-06-25T01:28:30.163Z,16.60
2017-06-25T01:30:57.726Z,16.60
2017-06-25T01:33:26.070Z,16.60
2017-06-25T01:35:53.654Z,16.50
2017-06-25T01:38:21.443Z,16.40
2017-06-25T01:40:49.001Z,16.30
2017-06-25T01:43:16.529Z,16.20
2017-06-25T01:45:44.064Z,16.10
2017-06-25T01:48:11.618Z,16.00
2017-06-25T01:50:39.145Z,16.00
2017-06-25T01:53:06.718Z,15.90
2017-06-25T01:55:34.270Z,15.90
2017-06-25T01:58:01.818Z,15.90
2017-06-25T02:00:29.374Z,15.80
2017-06-25T02:02:57.079Z,15.90
2017-06-25T02:05:24.635Z,15.80
2017-06-25T02:07:52.168Z,15.80
2017-06-25T02:10:19.715Z,15.70
2017-06-25T02:12:47.250Z,15.60
2017-06-25T02:15:15.571Z,15.60
2017-06-25T02:17:43.093Z,15.60
2017-06-25T02:20:10.626Z,15.70
2017-06-25T02:22:38.179Z,15.80
2017-06-25T02:25:05.711Z,15.90
2017-06-25T02:27:33.252Z,15.90
2017-06-25T02:30:00.779Z,15.90
2017-06-25T02:32:28.357Z,16.00
2017-06-25T02:34:55.895Z,16.00
2017-06-25T02:37:24.217Z,16.00
2017-06-25T02:39:51.746Z,16.00
2017-06-25T02:42:19.297Z,16.10
2017-06-25T02:44:47.619Z,16.10
2017-06-25T02:47:16.166Z,16.10
2017-06-25T02:49:43.707Z,16.00
2017-06-25T02:52:11.997Z,16.10
2017-06-25T02:54:39.550Z,16.10
2017-06-25T02:57:07.845Z,16.20
2017-06-25T02:59:35.395Z,16.20
2017-06-25T03:02:02.917Z,16.30
2017-06-25T03:04:30.446Z,16.30
2017-06-25T03:06:57.999Z,16.20
2017-06-25T03:09:37.370Z,16.10
2017-06-25T03:12:04.931Z,16.00
2017-06-25T03:14:32.457Z,15.90
2017-06-25T03:17:00.022Z,15.90
2017-06-25T03:19:27.550Z,15.90
2017-06-25T03:21:55.082Z,15.90
2017-06-25T03:24:23.406Z,16.00
2017-06-25T03:26:50.933Z,16.00
2017-06-25T03:29:18.481Z,16.00
2017-06-25T03:31:46.776Z,16.00
2017-06-25T03:34:14.326Z,16.00
2017-06-25T03:36:41.870Z,16.00
2017-06-25T03:39:10.214Z,15.90
2017-06-25T03:41:37.733Z,15.90
2017-06-25T03:44:05.318Z,15.90
2017-06-25T03:46:32.846Z,15.90
2017-06-25T03:49:00.382Z,16.00
2017-06-25T03:51:28.704Z,16.60
2017-06-25T03:53:57.273Z,16.60
2017-06-25T03:56:24.839Z,16.90
2017-06-25T03:58:52.369Z,17.10
2017-06-25T04:01:20.696Z,17.20
2017-06-25T04:03:48.222Z,17.20
2017-06-25T04:06:15.767Z,17.40
2017-06-25T04:08:44.155Z,17.80
2017-06-25T04:11:11.680Z,17.80
2017-06-25T04:13:39.226Z,17.90
2017-06-25T04:16:06.779Z,17.80
2017-06-25T04:18:34.326Z,17.70
2017-06-25T04:21:01.839Z,17.70
2017-06-25T04:23:30.151Z,18.20
2017-06-25T04:25:57.675Z,18.20
2017-06-25T04:28:25.978Z,20.30
2017-06-25T04:30:53.499Z,20.20
2017-06-25T04:33:21.061Z,21.90
2017-06-25T04:35:49.776Z,24.70
2017-06-25T04:38:17.306Z,24.70
2017-06-25T04:40:45.631Z,23.50
2017-06-25T04:43:13.149Z,23.50
2017-06-25T04:45:40.697Z,23.30
2017-06-25T04:48:08.989Z,22.10
2017-06-25T04:50:37.301Z,21.50
2017-06-25T04:53:04.823Z,21.40
2017-06-25T04:55:33.148Z,20.80
2017-06-25T04:58:00.675Z,20.80
2017-06-25T05:00:28.202Z,22.10
2017-06-25T05:02:56.519Z,27.20
2017-06-25T05:05:24.047Z,27.20
2017-06-25T05:07:52.361Z,27.60
2017-06-25T05:10:19.880Z,27.50
2017-06-25T05:12:48.190Z,25.00
2017-06-25T05:15:15.707Z,25.00
2017-06-25T05:17:43.260Z,23.60
2017-06-25T05:20:10.786Z,23.10
2017-06-25T05:22:38.321Z,23.10
2017-06-25T05:25:05.866Z,23.10
2017-06-25T05:27:33.390Z,22.90
2017-06-25T05:30:00.944Z,22.50
2017-06-25T05:32:28.458Z,22.20
2017-06-25T05:34:56.009Z,21.90
2017-06-25T05:37:23.543Z,22.00
2017-06-25T05:39:51.086Z,22.20
2017-06-25T05:42:18.619Z,22.20
2017-06-25T05:44:46.175Z,22.20
2017-06-25T05:47:13.700Z,22.00
2017-06-25T05:49:41.231Z,21.90
2017-06-25T05:52:08.781Z,21.70
2017-06-25T05:54:36.321Z,21.60
2017-06-25T05:57:03.877Z,21.60
2017-06-25T05:59:31.401Z,21.70
2017-06-25T06:01:58.949Z,21.90
2017-06-25T06:04:26.470Z,22.20
2017-06-25T06:06:54.014Z,22.50
2017-06-25T06:09:21.544Z,23.00
2017-06-25T06:11:49.097Z,23.50
2017-06-25T06:14:16.617Z,24.00
2017-06-25T06:16:44.137Z,24.70
2017-06-25T06:19:11.691Z,25.10
2017-06-25T06:21:39.210Z,25.40
2017-06-25T06:24:07.905Z,25.80
2017-06-25T06:26:35.425Z,25.70
2017-06-25T06:29:02.972Z,27.00
2017-06-25T06:31:30.482Z,28.20
2017-06-25T06:33:58.038Z,28.30
2017-06-25T06:36:25.557Z,28.20
2017-06-25T06:38:53.110Z,27.80
2017-06-25T06:41:20.662Z,27.10
2017-06-25T06:43:48.186Z,26.40
2017-06-25T06:46:15.757Z,26.20
2017-06-25T06:48:43.341Z,26.00
2017-06-25T06:51:10.891Z,25.80
2017-06-25T06:53:38.437Z,25.70
2017-06-25T06:56:05.997Z,25.50
2017-06-25T06:58:33.518Z,25.30
2017-06-25T07:01:01.983Z,25.00
2017-06-25T07:03:29.537Z,24.60
2017-06-25T07:05:57.061Z,24.30
2017-06-25T07:08:24.625Z,24.00
2017-06-25T07:10:52.154Z,24.10
2017-06-25T07:13:19.703Z,24.20
2017-06-25T07:15:47.231Z,24.20
2017-06-25T07:18:14.778Z,24.20
2017-06-25T07:20:42.333Z,24.40
2017-06-25T07:23:10.001Z,24.60
2017-06-25T07:25:38.349Z,24.80
2017-06-25T07:28:05.881Z,24.80
2017-06-25T07:30:33.427Z,24.80
2017-06-25T07:33:00.975Z,24.80
2017-06-25T07:35:29.298Z,24.60
2017-06-25T07:37:56.821Z,24.60
2017-06-25T07:40:25.135Z,24.40
2017-06-25T07:42:52.661Z,24.40
2017-06-25T07:45:20.961Z,24.50
2017-06-25T07:47:48.483Z,24.50
2017-06-25T07:50:16.786Z,24.80
2017-06-25T07:52:44.327Z,24.80
2017-06-25T07:55:12.657Z,24.00
2017-06-25T07:57:40.185Z,24.00
2017-06-25T08:00:07.706Z,23.70
2017-06-25T08:02:35.244Z,23.10
2017-06-25T08:05:02.770Z,22.90
2017-06-25T08:07:30.318Z,22.90
2017-06-25T08:09:57.851Z,22.90
2017-06-25T08:12:25.375Z,22.80
2017-06-25T08:14:52.986Z,23.00
2017-06-25T08:17:20.515Z,23.10
2017-06-25T08:19:48.061Z,23.30
2017-06-25T08:22:15.590Z,23.50
2017-06-25T08:24:43.130Z,23.90
2017-06-25T08:27:10.661Z,24.20
2017-06-25T08:29:38.944Z,24.70
2017-06-25T08:32:06.487Z,24.70
2017-06-25T08:34:34.007Z,24.70
2017-06-25T08:37:01.546Z,24.90
2017-06-25T08:39:29.076Z,25.00
2017-06-25T08:41:57.357Z,25.00
2017-06-25T08:44:25.664Z,24.90
2017-06-25T08:46:53.185Z,24.80
2017-06-25T08:49:21.490Z,24.90
2017-06-25T08:51:49.014Z,24.90
2017-06-25T08:54:17.326Z,24.60
2017-06-25T08:56:44.854Z,24.50
2017-06-25T08:59:13.177Z,23.90
2017-06-25T09:01:40.726Z,23.90
2017-06-25T09:04:08.260Z,24.00
2017-06-25T09:06:36.566Z,24.00
2017-06-25T09:09:04.113Z,24.00
2017-06-25T09:11:31.643Z,24.00
2017-06-25T09:13:59.958Z,24.00
2017-06-25T09:16:27.480Z,24.00
2017-06-25T09:18:55.799Z,24.00
2017-06-25T09:21:23.329Z,23.90
2017-06-25T09:23:50.853Z,23.90
2017-06-25T09:26:18.406Z,24.10
2017-06-25T09:28:45.946Z,24.10
2017-06-25T09:31:13.482Z,24.10
2017-06-25T09:33:41.002Z,23.80
2017-06-25T09:36:08.522Z,24.00
2017-06-25T09:38:36.065Z,24.10
2017-06-25T09:41:03.590Z,24.20
2017-06-25T09:43:31.907Z,23.90
2017-06-25T09:45:59.443Z,23.90
2017-06-25T09:48:26.973Z,23.90
2017-06-25T09:50:54.516Z,23.70
2017-06-25T09:53:22.038Z,23.50
2017-06-25T09:55:49.574Z,23.40
2017-06-25T09:58:17.094Z,23.30
2017-06-25T10:00:44.618Z,23.30
2017-06-25T10:03:12.166Z,23.60
2017-06-25T10:05:39.686Z,23.80
2017-06-25T10:08:08.434Z,24.10
2017-06-25T10:10:35.958Z,24.10
2017-06-25T10:13:03.488Z,24.20
2017-06-25T10:15:31.806Z,24.20
2017-06-25T10:17:59.330Z,24.20
2017-06-25T10:20:27.638Z,25.10
2017-06-25T10:22:55.154Z,25.20
2017-06-25T10:25:22.670Z,25.80
2017-06-25T10:27:50.206Z,26.20
2017-06-25T10:30:17.738Z,26.20
2017-06-25T10:32:46.046Z,26.00
2017-06-25T10:35:13.631Z,26.00
2017-06-25T10:37:41.157Z,26.00
2017-06-25T10:40:08.698Z,26.10
2017-06-25T10:42:37.011Z,27.50
2017-06-25T10:45:04.557Z,27.50
2017-06-25T10:47:32.115Z,27.90
2017-06-25T10:49:59.645Z,28.30
2017-06-25T10:52:27.973Z,28.50
2017-06-25T10:54:55.502Z,28.50
2017-06-25T10:57:23.036Z,28.20
2017-06-25T10:59:51.326Z,28.20
2017-06-25T11:02:19.630Z,28.60
2017-06-25T11:04:47.733Z,28.60
2017-06-25T11:07:15.294Z,29.20
2017-06-25T11:09:42.844Z,29.40
2017-06-25T11:12:10.370Z,30.10
2017-06-25T11:14:37.917Z,30.90
2017-06-25T11:17:05.459Z,31.50
2017-06-25T11:19:33.779Z,31.40
2017-06-25T11:22:01.299Z,31.40
2017-06-25T11:24:29.691Z,31.10
2017-06-25T11:26:57.224Z,31.10
2017-06-25T11:29:24.763Z,31.20
2017-06-25T11:31:52.299Z,30.90
2017-06-25T11:34:19.869Z,30.40
2017-06-25T11:36:47.406Z,30.00
2017-06-25T11:39:14.931Z,29.70
2017-06-25T11:41:43.247Z,28.10
2017-06-25T11:44:10.773Z,28.10
2017-06-25T11:46:38.318Z,27.10
2017-06-25T11:49:06.602Z,25.80
2017-06-25T11:51:34.917Z,25.40
2017-06-25T11:54:02.443Z,25.40
2017-06-25T11:56:30.002Z,25.00
2017-06-25T11:58:58.293Z,24.80
2017-06-25T12:01:25.810Z,24.70
2017-06-25T12:03:53.363Z,24.90
2017-06-25T12:06:20.879Z,25.20
2017-06-25T12:08:48.415Z,25.80
2017-06-25T12:11:16.694Z,27.10
2017-06-25T12:13:44.238Z,27.00
2017-06-25T12:16:12.525Z,28.90
2017-06-25T12:18:40.840Z,29.40
2017-06-25T12:21:08.362Z,29.30
2017-06-25T12:23:35.886Z,29.90
2017-06-25T12:26:03.435Z,29.60
2017-06-25T12:28:30.953Z,28.90
2017-06-25T12:30:58.501Z,28.50
2017-06-25T12:33:26.021Z,28.40
2017-06-25T12:35:53.575Z,28.60
2017-06-25T12:38:21.101Z,28.90
2017-06-25T12:40:48.699Z,29.30
2017-06-25T12:43:16.218Z,29.70
2017-06-25T12:45:43.743Z,30.10
2017-06-25T12:48:12.060Z,29.60
2017-06-25T12:50:39.586Z,29.50
2017-06-25T12:53:07.126Z,29.90
2017-06-25T12:55:35.426Z,29.90
2017-06-25T12:58:02.966Z,29.90
2017-06-25T13:00:31.250Z,29.30
2017-06-25T13:02:58.801Z,29.30
2017-06-25T13:05:27.137Z,28.90
2017-06-25T13:07:54.674Z,28.90
2017-06-25T13:10:23.081Z,28.60
2017-06-25T13:12:50.601Z,28.60
2017-06-25T13:15:18.156Z,28.60
2017-06-25T13:17:45.682Z,29.20
2017-06-25T13:20:13.238Z,29.80
2017-06-25T13:22:40.763Z,30.20
2017-06-25T13:25:08.328Z,30.40
2017-06-25T13:27:35.859Z,30.10
2017-06-25T13:30:03.377Z,30.00
2017-06-25T13:32:30.919Z,30.10
2017-06-25T13:34:58.447Z,30.30
2017-06-25T13:37:25.987Z,30.40
2017-06-25T13:39:53.513Z,30.40
2017-06-25T13:42:21.823Z,29.60
2017-06-25T13:44:49.349Z,29.50
2017-06-25T13:47:17.662Z,28.20
2017-06-25T13:49:45.182Z,28.20
2017-06-25T13:52:13.471Z,29.10
2017-06-25T13:54:41.830Z,29.60
2017-06-25T13:57:09.347Z,29.60
2017-06-25T13:59:36.886Z,29.40
2017-06-25T14:02:04.416Z,29.20
2017-06-25T14:04:32.718Z,28.20
2017-06-25T14:07:00.243Z,28.20
2017-06-25T14:09:28.350Z,27.90
2017-06-25T14:11:55.878Z,28.00
2017-06-25T14:14:23.398Z,27.90
2017-06-25T14:16:50.942Z,27.70
2017-06-25T14:19:18.453Z,28.10
2017-06-25T14:21:45.999Z,28.60
2017-06-25T14:24:13.519Z,28.90
2017-06-25T14:26:41.069Z,28.90
2017-06-25T14:29:08.586Z,29.20
2017-06-25T14:31:36.131Z,29.10
2017-06-25T14:34:03.658Z,28.90
2017-06-25T14:36:31.194Z,28.50
2017-06-25T14:38:58.731Z,28.30
2017-06-25T14:41:26.254Z,28.00
2017-06-25T14:43:53.791Z,27.60
2017-06-25T14:46:21.320Z,27.50
2017-06-25T14:48:48.919Z,27.20
2017-06-25T14:51:16.442Z,26.90
2017-06-25T14:53:43.986Z,27.10
2017-06-25T14:56:12.274Z,27.60
2017-06-25T14:58:40.369Z,27.60
2017-06-25T15:01:07.906Z,27.80
2017-06-25T15:03:35.433Z,28.30
2017-06-25T15:06:02.986Z,29.30
2017-06-25T15:08:31.513Z,30.10
2017-06-25T15:10:59.046Z,30.40
2017-06-25T15:13:26.569Z,30.80
2017-06-25T15:15:54.134Z,31.10
2017-06-25T15:18:21.654Z,31.10
2017-06-25T15:20:49.175Z,30.90
2017-06-25T15:23:16.714Z,30.70
2017-06-25T15:25:44.245Z,30.50
2017-06-25T15:28:11.780Z,29.80
2017-06-25T15:30:39.306Z,28.90
2017-06-25T15:33:06.837Z,28.50
2017-06-25T15:35:34.361Z,28.10
2017-06-25T15:38:01.919Z,27.90
2017-06-25T15:40:29.438Z,27.70
2017-06-25T15:42:56.969Z,27.50
2017-06-25T15:45:24.514Z,27.50
2017-06-25T15:47:52.030Z,27.60
2017-06-25T15:50:20.346Z,27.70
2017-06-25T15:52:47.875Z,27.70
2017-06-25T15:55:15.429Z,27.80
2017-06-25T15:57:43.715Z,28.00
2017-06-25T16:00:11.262Z,28.00
2017-06-25T16:02:39.570Z,28.20
2017-06-25T16:05:07.094Z,28.10
2017-06-25T16:07:35.394Z,28.10
2017-06-25T16:10:02.918Z,28.00
2017-06-25T16:12:31.249Z,27.70
2017-06-25T16:14:58.779Z,27.70
2017-06-25T16:17:26.318Z,27.60
2017-06-25T16:19:54.623Z,27.10
2017-06-25T16:22:22.197Z,27.10
2017-06-25T16:24:50.215Z,27.10
2017-06-25T16:27:17.741Z,26.80
2017-06-25T16:29:45.305Z,26.50
2017-06-25T16:32:12.833Z,26.40
2017-06-25T16:34:40.370Z,26.50
2017-06-25T16:37:08.669Z,26.20
2017-06-25T16:39:36.214Z,26.20
2017-06-25T16:42:03.797Z,26.00
2017-06-25T16:44:31.343Z,25.90
2017-06-25T16:46:58.862Z,25.80
2017-06-25T16:49:26.388Z,25.80
2017-06-25T16:51:53.959Z,25.80
2017-06-25T16:54:21.498Z,25.60
2017-06-25T16:56:49.056Z,25.50
2017-06-25T16:59:16.575Z,25.30
2017-06-25T17:01:48.159Z,25.10
2017-06-25T17:04:15.683Z,25.10
2017-06-25T17:06:43.999Z,24.90
2017-06-25T17:09:11.597Z,24.90
2017-06-25T17:11:39.158Z,24.90
2017-06-25T17:14:07.494Z,24.70
2017-06-25T17:16:35.025Z,24.70
2017-06-25T17:19:02.561Z,24.60
2017-06-25T17:21:30.850Z,24.70
2017-06-25T17:23:58.397Z,24.70
2017-06-25T17:26:26.747Z,24.60
2017-06-25T17:28:54.283Z,24.60
2017-06-25T17:31:21.801Z,24.50
2017-06-25T17:33:50.110Z,24.50
2017-06-25T17:36:17.650Z,24.50
2017-06-25T17:38:45.198Z,24.50
2017-06-25T17:41:13.499Z,24.30
2017-06-25T17:43:44.010Z,24.30
2017-06-25T17:46:12.305Z,24.20
2017-06-25T17:48:39.870Z,24.20
2017-06-25T17:51:07.387Z,24.10
2017-06-25T17:53:35.730Z,24.10
2017-06-25T17:56:03.250Z,24.10
2017-06-25T17:58:30.789Z,24.10
2017-06-25T18:00:59.073Z,23.90
2017-06-25T18:03:27.386Z,23.90
2017-06-25T18:05:54.902Z,23.80
2017-06-25T18:08:22.446Z,23.80
2017-06-25T18:10:49.974Z,23.80
2017-06-25T18:13:17.511Z,23.70
2017-06-25T18:15:45.074Z,23.70
2017-06-25T18:18:12.610Z,23.60
2017-06-25T18:20:40.138Z,23.60
2017-06-25T18:23:07.694Z,23.60
2017-06-25T18:25:35.260Z,23.60
2017-06-25T18:28:03.552Z,23.50
2017-06-25T18:30:31.858Z,23.40
2017-06-25T18:32:59.377Z,23.40
2017-06-25T18:35:26.926Z,23.40
2017-06-25T18:37:55.230Z,23.30
2017-06-25T18:40:22.771Z,23.30
2017-06-25T18:42:50.293Z,23.30
2017-06-25T18:45:17.835Z,23.20
2017-06-25T18:47:45.360Z,23.20
2017-06-25T18:50:12.910Z,23.10
2017-06-25T18:52:40.483Z,23.10
2017-06-25T18:55:08.007Z,23.00
2017-06-25T18:57:35.550Z,23.00
2017-06-25T19:00:03.096Z,22.90
2017-06-25T19:02:30.639Z,22.90
2017-06-25T19:04:58.161Z,22.80
2017-06-25T19:07:25.716Z,22.80
2017-06-25T19:09:54.030Z,22.60
2017-06-25T19:12:21.587Z,22.60
2017-06-25T19:14:49.116Z,22.50
2017-06-25T19:17:17.405Z,22.40
2017-06-25T19:19:44.954Z,22.40
2017-06-25T19:22:13.249Z,22.30
2017-06-25T19:24:40.817Z,22.30
2017-06-25T19:27:08.337Z,22.30
2017-06-25T19:29:36.695Z,22.20
2017-06-25T19:32:04.220Z,22.20
2017-06-25T19:34:31.765Z,22.20
2017-06-25T19:36:59.300Z,22.20
2017-06-25T19:39:26.869Z,22.10
2017-06-25T19:41:54.387Z,22.10
2017-06-25T19:44:21.925Z,22.00
2017-06-25T19:46:49.592Z,22.00
2017-06-25T19:49:17.121Z,21.90
2017-06-25T19:51:44.668Z,21.80
2017-06-25T19:54:13.034Z,21.80
2017-06-25T19:56:41.352Z,21.70
2017-06-25T19:59:08.874Z,21.60
2017-06-25T20:01:36.450Z,21.60
2017-06-25T20:04:07.640Z,21.50
2017-06-25T20:06:35.198Z,21.50
2017-06-25T20:09:03.520Z,21.30
2017-06-25T20:11:31.055Z,21.30
2017-06-25T20:13:58.708Z,21.30
2017-06-25T20:16:26.281Z,21.20
2017-06-25T20:18:54.594Z,21.20
2017-06-25T20:21:22.129Z,21.20
2017-06-25T20:23:50.444Z,21.10
2017-06-25T20:26:18.031Z,21.10
2017-06-25T20:28:45.583Z,21.00
2017-06-25T20:31:13.108Z,20.80
2017-06-25T20:33:40.678Z,20.70
2017-06-25T20:36:08.193Z,20.50
2017-06-25T20:38:36.478Z,20.40
2017-06-25T20:41:04.021Z,20.30
2017-06-25T20:43:32.317Z,20.30
2017-06-25T20:45:59.884Z,20.30
2017-06-25T20:48:27.407Z,20.30
2017-06-25T20:50:54.980Z,20.20
2017-06-25T20:53:23.280Z,20.20
2017-06-25T20:55:50.826Z,20.20
2017-06-25T20:58:19.105Z,20.10
2017-06-25T21:00:46.666Z,20.10
2017-06-25T21:03:14.199Z,20.00
2017-06-25T21:05:41.768Z,19.90
2017-06-25T21:08:10.060Z,19.90
2017-06-25T21:10:37.587Z,19.80
2017-06-25T21:13:05.160Z,19.80
2017-06-25T21:15:33.458Z,19.70
2017-06-25T21:18:01.002Z,19.70
2017-06-25T21:20:29.287Z,19.50
2017-06-25T21:22:56.833Z,19.50
2017-06-25T21:25:25.122Z,19.40
2017-06-25T21:27:52.678Z,19.40
2017-06-25T21:30:20.961Z,19.40
2017-06-25T21:32:48.515Z,19.40
2017-06-25T21:35:16.038Z,19.40
2017-06-25T21:37:43.586Z,19.30
2017-06-25T21:40:11.141Z,19.30
2017-06-25T21:42:39.466Z,19.40
2017-06-25T21:45:07.030Z,19.40
2017-06-25T21:47:34.582Z,19.40
2017-06-25T21:50:06.145Z,19.40
2017-06-25T21:52:33.683Z,19.40
2017-06-25T21:55:01.241Z,19.40
2017-06-25T21:57:28.773Z,19.50
2017-06-25T21:59:56.324Z,19.40
2017-06-25T22:02:23.849Z,19.40
2017-06-25T22:04:51.410Z,19.40
2017-06-25T22:07:18.947Z,19.40
2017-06-25T22:09:47.330Z,19.20
2017-06-25T22:12:14.871Z,19.20
2017-06-25T22:14:43.170Z,19.00
2017-06-25T22:17:10.714Z,19.00
2017-06-25T22:19:39.010Z,18.90
2017-06-25T22:22:06.550Z,18.90
2017-06-25T22:24:34.838Z,18.90
2017-06-25T22:27:03.277Z,18.90
2017-06-25T22:29:31.578Z,18.90
2017-06-25T22:31:59.897Z,18.90
2017-06-25T22:34:27.426Z,18.90
2017-06-25T22:36:55.710Z,18.90
2017-06-25T22:39:23.249Z,18.90
2017-06-25T22:41:51.545Z,18.70
2017-06-25T22:44:19.089Z,18.70
2017-06-25T22:46:47.387Z,18.60
2017-06-25T22:49:14.941Z,18.60
2017-06-25T22:51:42.458Z,18.60
2017-06-25T22:54:09.998Z,18.60
2017-06-25T22:56:37.522Z,18.60
2017-06-25T22:59:05.077Z,18.60
2017-06-25T23:01:32.608Z,18.50
2017-06-25T23:04:00.907Z,18.50
2017-06-25T23:06:28.454Z,18.50
2017-06-25T23:08:56.747Z,18.40
2017-06-25T23:11:24.287Z,18.30
2017-06-25T23:13:52.588Z,18.30
2017-06-25T23:16:20.146Z,18.30
2017-06-25T23:18:47.722Z,18.30
2017-06-25T23:21:18.701Z,18.20
2017-06-25T23:23:46.234Z,18.20
2017-06-25T23:26:13.848Z,18.10
2017-06-25T23:28:42.134Z,17.90
2017-06-25T23:31:09.658Z,17.90
2017-06-25T23:33:37.207Z,17.90
2017-06-25T23:36:04.768Z,17.80
2017-06-25T23:38:32.308Z,17.80
2017-06-25T23:40:59.832Z,17.70
2017-06-25T23:43:27.378Z,17.70
2017-06-25T23:45:55.666Z,17.50
2017-06-25T23:48:23.214Z,17.50
2017-06-25T23:50:51.502Z,17.50
2017-06-25T23:53:19.059Z,17.50
2017-06-25T23:55:46.621Z,17.50
2017-06-25T23:58:14.146Z,17.40
